Terminal Aerodrome Forecast
Issued by NWS

Home | Current Version | Previous Version | Text Only | Print | Product List | Glossary On
Versions: 1 2 3 4 5 6 7 8 9 10 11 12 13
572
FTUS46 KLOX 132209 AAA
TAFVNY
TAF AMD
KVNY 132209Z 1322/1418 13008KT P6SM SKC
     FM140300 36008KT P6SM SKC=

USA.gov is the U.S. government's official web portal to all federal, state and local government web resources and services.